San Diego, California
Traffic Map
Current Weather Conditions
San Diego, California
Scattered Clouds
Scattered Clouds
27°
Feels Like: 27°
Wind Chill: 27° Ceiling: Unl
Heat Index: 27° Visibility: 10mi
Dew Point: 16° Wind: 9mph
Humidity: 50% Direction: 310° (NW)
Pressure: 29.95in Gusts: 0mph
Raw Report DataKSAN 232151Z 31008KT 10SM FEW010 SCT250 27/16 A2995 RMK AO2 SLP141 T02670156 $
Traffic Incident Summary
Active as of:
Severity:
Category:
InformationThere was an issue retrieving the traffic information for this location. Please try a different location or try again shortly.
Advertisements
Track Severe Weather on mobile